sensor_id;sensor_type;location;lat;lon;timestamp;P1;durP1;ratioP1;P2;durP2;ratioP2
35550;SDS011;21655;46.056;13.616;2022-08-19T10:31:28;3.40;;;1.02;;
35550;SDS011;21655;46.056;13.616;2022-08-19T10:33:56;4.57;;;1.33;;
35550;SDS011;21655;46.056;13.616;2022-08-19T10:36:24;5.80;;;1.38;;
35550;SDS011;21655;46.056;13.616;2022-08-19T10:38:58;6.43;;;1.38;;
35550;SDS011;21655;46.056;13.616;2022-08-19T10:41:34;4.90;;;0.93;;
35550;SDS011;21655;46.056;13.616;2022-08-19T10:44:03;4.45;;;1.40;;
35550;SDS011;21655;46.056;13.616;2022-08-19T10:46:31;3.35;;;1.02;;
35550;SDS011;21655;46.056;13.616;2022-08-19T10:48:59;6.88;;;1.42;;
35550;SDS011;21655;46.056;13.616;2022-08-19T10:51:26;5.07;;;1.20;;
35550;SDS011;21655;46.056;13.616;2022-08-19T10:54:10;4.22;;;1.30;;
35550;SDS011;21655;46.056;13.616;2022-08-19T10:56:36;4.55;;;1.55;;
35550;SDS011;21655;46.056;13.616;2022-08-19T10:59:20;2.65;;;1.30;;
35550;SDS011;21655;46.056;13.616;2022-08-19T11:01:51;5.85;;;1.52;;
35550;SDS011;21655;46.056;13.616;2022-08-19T11:04:17;4.57;;;1.30;;
35550;SDS011;21655;46.056;13.616;2022-08-19T11:06:44;5.75;;;1.40;;
35550;SDS011;21655;46.056;13.616;2022-08-19T11:09:12;7.18;;;1.30;;
35550;SDS011;21655;46.056;13.616;2022-08-19T11:11:42;4.82;;;1.30;;
35550;SDS011;21655;46.056;13.616;2022-08-19T11:14:08;3.92;;;1.30;;
35550;SDS011;21655;46.056;13.616;2022-08-19T11:16:39;8.27;;;1.58;;
35550;SDS011;21655;46.056;13.616;2022-08-19T11:19:05;4.18;;;1.52;;
35550;SDS011;21655;46.056;13.616;2022-08-19T11:21:34;6.65;;;1.35;;
35550;SDS011;21655;46.056;13.616;2022-08-19T11:24:06;5.53;;;1.80;;
35550;SDS011;21655;46.056;13.616;2022-08-19T11:26:34;8.65;;;1.60;;
35550;SDS011;21655;46.056;13.616;2022-08-19T11:29:00;3.85;;;1.40;;
35550;SDS011;21655;46.056;13.616;2022-08-19T11:31:27;6.88;;;1.60;;
35550;SDS011;21655;46.056;13.616;2022-08-19T11:33:56;8.55;;;2.00;;
35550;SDS011;21655;46.056;13.616;2022-08-19T11:36:24;5.03;;;1.63;;
35550;SDS011;21655;46.056;13.616;2022-08-19T11:38:50;10.95;;;1.77;;
35550;SDS011;21655;46.056;13.616;2022-08-19T11:41:17;10.45;;;2.17;;
35550;SDS011;21655;46.056;13.616;2022-08-19T11:43:44;9.35;;;2.72;;
35550;SDS011;21655;46.056;13.616;2022-08-19T11:46:10;8.57;;;2.45;;
35550;SDS011;21655;46.056;13.616;2022-08-19T11:48:38;7.47;;;2.40;;
35550;SDS011;21655;46.056;13.616;2022-08-19T11:51:04;5.93;;;1.90;;
35550;SDS011;21655;46.056;13.616;2022-08-19T11:53:33;10.15;;;2.35;;
35550;SDS011;21655;46.056;13.616;2022-08-19T11:56:00;8.85;;;2.10;;
35550;SDS011;21655;46.056;13.616;2022-08-19T11:58:25;10.95;;;2.28;;
35550;SDS011;21655;46.056;13.616;2022-08-19T12:00:51;9.10;;;2.10;;
35550;SDS011;21655;46.056;13.616;2022-08-19T12:03:18;15.43;;;2.63;;
35550;SDS011;21655;46.056;13.616;2022-08-19T12:05:47;13.50;;;2.60;;
35550;SDS011;21655;46.056;13.616;2022-08-19T12:08:13;11.77;;;3.50;;
35550;SDS011;21655;46.056;13.616;2022-08-19T12:10:40;5.75;;;2.03;;
35550;SDS011;21655;46.056;13.616;2022-08-19T12:13:07;6.32;;;2.20;;
35550;SDS011;21655;46.056;13.616;2022-08-19T12:15:37;7.97;;;2.00;;
35550;SDS011;21655;46.056;13.616;2022-08-19T12:18:05;10.27;;;1.95;;
35550;SDS011;21655;46.056;13.616;2022-08-19T12:20:34;7.55;;;1.80;;
35550;SDS011;21655;46.056;13.616;2022-08-19T12:23:01;6.38;;;1.52;;
35550;SDS011;21655;46.056;13.616;2022-08-19T12:25:26;6.13;;;1.77;;
35550;SDS011;21655;46.056;13.616;2022-08-19T12:27:52;6.05;;;1.60;;
35550;SDS011;21655;46.056;13.616;2022-08-19T12:30:17;7.82;;;1.60;;
35550;SDS011;21655;46.056;13.616;2022-08-19T12:32:43;12.32;;;2.00;;
35550;SDS011;21655;46.056;13.616;2022-08-19T12:35:08;6.43;;;1.80;;
35550;SDS011;21655;46.056;13.616;2022-08-19T12:37:35;6.88;;;1.98;;
35550;SDS011;21655;46.056;13.616;2022-08-19T12:40:01;5.75;;;1.63;;
35550;SDS011;21655;46.056;13.616;2022-08-19T12:42:28;5.03;;;1.70;;
35550;SDS011;21655;46.056;13.616;2022-08-19T12:44:54;4.68;;;1.80;;
35550;SDS011;21655;46.056;13.616;2022-08-19T12:47:20;5.70;;;1.45;;
35550;SDS011;21655;46.056;13.616;2022-08-19T12:49:46;4.72;;;1.85;;
35550;SDS011;21655;46.056;13.616;2022-08-19T12:52:12;6.82;;;2.20;;
35550;SDS011;21655;46.056;13.616;2022-08-19T12:54:40;5.45;;;1.60;;
35550;SDS011;21655;46.056;13.616;2022-08-19T12:57:07;7.13;;;1.60;;
35550;SDS011;21655;46.056;13.616;2022-08-19T12:59:34;4.68;;;1.90;;
35550;SDS011;21655;46.056;13.616;2022-08-19T13:02:01;5.90;;;1.90;;
35550;SDS011;21655;46.056;13.616;2022-08-19T13:04:31;5.85;;;1.65;;
35550;SDS011;21655;46.056;13.616;2022-08-19T13:07:00;6.80;;;1.70;;
35550;SDS011;21655;46.056;13.616;2022-08-19T13:09:25;7.28;;;1.83;;
35550;SDS011;21655;46.056;13.616;2022-08-19T13:11:52;10.43;;;1.42;;
35550;SDS011;21655;46.056;13.616;2022-08-19T13:14:18;4.82;;;1.35;;
35550;SDS011;21655;46.056;13.616;2022-08-19T13:16:43;10.68;;;1.92;;
35550;SDS011;21655;46.056;13.616;2022-08-19T13:19:09;8.13;;;1.80;;
35550;SDS011;21655;46.056;13.616;2022-08-19T13:21:35;6.13;;;1.70;;
35550;SDS011;21655;46.056;13.616;2022-08-19T13:24:01;8.57;;;1.77;;
35550;SDS011;21655;46.056;13.616;2022-08-19T13:26:27;5.82;;;2.28;;
35550;SDS011;21655;46.056;13.616;2022-08-19T13:28:52;4.97;;;1.83;;
35550;SDS011;21655;46.056;13.616;2022-08-19T13:31:38;8.43;;;1.70;;
35550;SDS011;21655;46.056;13.616;2022-08-19T13:34:26;8.30;;;1.67;;
35550;SDS011;21655;46.056;13.616;2022-08-19T13:36:58;8.38;;;1.70;;
35550;SDS011;21655;46.056;13.616;2022-08-19T13:39:24;7.32;;;2.08;;
35550;SDS011;21655;46.056;13.616;2022-08-19T13:41:50;5.30;;;1.67;;
35550;SDS011;21655;46.056;13.616;2022-08-19T13:44:16;8.52;;;1.60;;
35550;SDS011;21655;46.056;13.616;2022-08-19T13:46:45;6.20;;;1.80;;
35550;SDS011;21655;46.056;13.616;2022-08-19T13:49:13;8.55;;;1.70;;
35550;SDS011;21655;46.056;13.616;2022-08-19T13:51:39;7.68;;;1.98;;
35550;SDS011;21655;46.056;13.616;2022-08-19T13:54:06;11.35;;;1.73;;
35550;SDS011;21655;46.056;13.616;2022-08-19T13:56:33;8.32;;;1.80;;
35550;SDS011;21655;46.056;13.616;2022-08-19T13:58:59;4.82;;;1.70;;
35550;SDS011;21655;46.056;13.616;2022-08-19T14:01:25;5.53;;;1.55;;
35550;SDS011;21655;46.056;13.616;2022-08-19T14:03:51;7.50;;;2.10;;
35550;SDS011;21655;46.056;13.616;2022-08-19T14:06:18;7.30;;;2.00;;
35550;SDS011;21655;46.056;13.616;2022-08-19T14:08:44;9.13;;;2.22;;
35550;SDS011;21655;46.056;13.616;2022-08-19T14:11:10;8.07;;;2.00;;
35550;SDS011;21655;46.056;13.616;2022-08-19T14:13:36;9.82;;;2.65;;
35550;SDS011;21655;46.056;13.616;2022-08-19T14:16:05;10.00;;;1.95;;
35550;SDS011;21655;46.056;13.616;2022-08-19T14:18:33;9.48;;;2.13;;
35550;SDS011;21655;46.056;13.616;2022-08-19T14:20:59;6.97;;;2.08;;
35550;SDS011;21655;46.056;13.616;2022-08-19T14:23:25;5.70;;;1.80;;
35550;SDS011;21655;46.056;13.616;2022-08-19T14:25:50;7.18;;;1.70;;
35550;SDS011;21655;46.056;13.616;2022-08-19T14:28:15;5.47;;;2.33;;
35550;SDS011;21655;46.056;13.616;2022-08-19T14:30:41;6.90;;;2.53;;
35550;SDS011;21655;46.056;13.616;2022-08-19T14:33:09;8.95;;;1.92;;
35550;SDS011;21655;46.056;13.616;2022-08-19T14:35:35;6.18;;;1.60;;
35550;SDS011;21655;46.056;13.616;2022-08-19T14:38:02;9.77;;;1.90;;
35550;SDS011;21655;46.056;13.616;2022-08-19T14:40:30;8.80;;;2.10;;
35550;SDS011;21655;46.056;13.616;2022-08-19T14:42:57;7.88;;;2.17;;
35550;SDS011;21655;46.056;13.616;2022-08-19T14:45:30;9.43;;;2.17;;
35550;SDS011;21655;46.056;13.616;2022-08-19T14:50:29;6.03;;;1.65;;
35550;SDS011;21655;46.056;13.616;2022-08-19T14:53:07;7.45;;;1.80;;
35550;SDS011;21655;46.056;13.616;2022-08-19T14:55:33;7.93;;;1.98;;
35550;SDS011;21655;46.056;13.616;2022-08-19T14:57:59;6.97;;;2.28;;
35550;SDS011;21655;46.056;13.616;2022-08-19T15:00:25;7.38;;;2.33;;
35550;SDS011;21655;46.056;13.616;2022-08-19T15:02:51;10.45;;;2.20;;
35550;SDS011;21655;46.056;13.616;2022-08-19T15:05:18;8.30;;;2.10;;
35550;SDS011;21655;46.056;13.616;2022-08-19T15:07:43;8.48;;;2.15;;
35550;SDS011;21655;46.056;13.616;2022-08-19T15:10:10;10.60;;;2.03;;
35550;SDS011;21655;46.056;13.616;2022-08-19T15:12:37;7.82;;;2.05;;
35550;SDS011;21655;46.056;13.616;2022-08-19T15:15:08;8.40;;;2.10;;
35550;SDS011;21655;46.056;13.616;2022-08-19T15:17:38;9.85;;;2.05;;
35550;SDS011;21655;46.056;13.616;2022-08-19T15:20:05;10.63;;;2.13;;
35550;SDS011;21655;46.056;13.616;2022-08-19T15:22:32;7.68;;;2.05;;
35550;SDS011;21655;46.056;13.616;2022-08-19T15:24:57;8.25;;;2.05;;
35550;SDS011;21655;46.056;13.616;2022-08-19T15:27:23;9.73;;;2.20;;
35550;SDS011;21655;46.056;13.616;2022-08-19T15:29:48;5.97;;;2.20;;
35550;SDS011;21655;46.056;13.616;2022-08-19T15:32:14;11.57;;;2.08;;
35550;SDS011;21655;46.056;13.616;2022-08-19T15:34:40;7.75;;;2.60;;
35550;SDS011;21655;46.056;13.616;2022-08-19T15:37:05;10.98;;;1.95;;
35550;SDS011;21655;46.056;13.616;2022-08-19T15:39:31;8.80;;;2.28;;
35550;SDS011;21655;46.056;13.616;2022-08-19T15:41:57;13.05;;;1.95;;
35550;SDS011;21655;46.056;13.616;2022-08-19T15:44:24;14.90;;;2.35;;
35550;SDS011;21655;46.056;13.616;2022-08-19T15:46:51;7.80;;;2.00;;
35550;SDS011;21655;46.056;13.616;2022-08-19T15:49:17;9.30;;;2.20;;
35550;SDS011;21655;46.056;13.616;2022-08-19T15:51:44;14.90;;;2.78;;
35550;SDS011;21655;46.056;13.616;2022-08-19T15:54:13;11.25;;;2.17;;
35550;SDS011;21655;46.056;13.616;2022-08-19T15:56:41;11.20;;;2.10;;
35550;SDS011;21655;46.056;13.616;2022-08-19T15:59:29;11.75;;;2.30;;
35550;SDS011;21655;46.056;13.616;2022-08-19T16:02:14;12.93;;;2.60;;
35550;SDS011;21655;46.056;13.616;2022-08-19T16:05:00;9.43;;;2.53;;
35550;SDS011;21655;46.056;13.616;2022-08-19T16:07:45;12.13;;;2.42;;
35550;SDS011;21655;46.056;13.616;2022-08-19T16:10:11;9.02;;;2.42;;
35550;SDS011;21655;46.056;13.616;2022-08-19T16:12:38;6.53;;;2.28;;
35550;SDS011;21655;46.056;13.616;2022-08-19T16:15:06;10.85;;;2.63;;
35550;SDS011;21655;46.056;13.616;2022-08-19T16:17:33;7.88;;;2.50;;
35550;SDS011;21655;46.056;13.616;2022-08-19T16:19:59;11.70;;;2.33;;
35550;SDS011;21655;46.056;13.616;2022-08-19T16:22:29;11.05;;;2.45;;
35550;SDS011;21655;46.056;13.616;2022-08-19T16:24:56;10.63;;;2.50;;
35550;SDS011;21655;46.056;13.616;2022-08-19T16:27:22;11.20;;;2.50;;
35550;SDS011;21655;46.056;13.616;2022-08-19T16:29:47;12.80;;;2.50;;
35550;SDS011;21655;46.056;13.616;2022-08-19T16:32:13;9.65;;;2.53;;
35550;SDS011;21655;46.056;13.616;2022-08-19T16:34:40;9.65;;;2.47;;
35550;SDS011;21655;46.056;13.616;2022-08-19T16:37:07;10.05;;;2.20;;
35550;SDS011;21655;46.056;13.616;2022-08-19T16:39:34;10.48;;;2.65;;
35550;SDS011;21655;46.056;13.616;2022-08-19T16:41:59;9.95;;;2.30;;
35550;SDS011;21655;46.056;13.616;2022-08-19T16:44:25;13.57;;;2.40;;
35550;SDS011;21655;46.056;13.616;2022-08-19T16:46:51;13.93;;;2.80;;
35550;SDS011;21655;46.056;13.616;2022-08-19T16:49:17;11.77;;;2.97;;
35550;SDS011;21655;46.056;13.616;2022-08-19T16:51:43;12.90;;;2.30;;
35550;SDS011;21655;46.056;13.616;2022-08-19T16:54:09;15.35;;;2.97;;
35550;SDS011;21655;46.056;13.616;2022-08-19T16:56:35;13.73;;;2.95;;
35550;SDS011;21655;46.056;13.616;2022-08-19T16:59:01;9.90;;;2.95;;
35550;SDS011;21655;46.056;13.616;2022-08-19T17:01:27;11.57;;;2.63;;
35550;SDS011;21655;46.056;13.616;2022-08-19T17:03:53;12.48;;;2.63;;
35550;SDS011;21655;46.056;13.616;2022-08-19T17:06:21;13.57;;;3.65;;
35550;SDS011;21655;46.056;13.616;2022-08-19T17:08:50;16.08;;;2.67;;
35550;SDS011;21655;46.056;13.616;2022-08-19T17:11:19;14.02;;;3.22;;
35550;SDS011;21655;46.056;13.616;2022-08-19T17:13:46;11.05;;;3.10;;
35550;SDS011;21655;46.056;13.616;2022-08-19T17:16:13;15.05;;;2.50;;
35550;SDS011;21655;46.056;13.616;2022-08-19T17:18:39;14.35;;;3.22;;
35550;SDS011;21655;46.056;13.616;2022-08-19T17:21:05;14.50;;;2.60;;
35550;SDS011;21655;46.056;13.616;2022-08-19T17:23:30;17.95;;;2.72;;
35550;SDS011;21655;46.056;13.616;2022-08-19T17:25:56;12.23;;;2.70;;
35550;SDS011;21655;46.056;13.616;2022-08-19T17:28:23;13.30;;;2.65;;
35550;SDS011;21655;46.056;13.616;2022-08-19T17:30:52;9.43;;;2.63;;
35550;SDS011;21655;46.056;13.616;2022-08-19T17:33:19;11.32;;;2.63;;
35550;SDS011;21655;46.056;13.616;2022-08-19T17:35:45;10.85;;;2.95;;
35550;SDS011;21655;46.056;13.616;2022-08-19T17:38:16;12.80;;;2.85;;
35550;SDS011;21655;46.056;13.616;2022-08-19T17:40:43;7.75;;;2.40;;
35550;SDS011;21655;46.056;13.616;2022-08-19T17:43:10;10.13;;;2.60;;
35550;SDS011;21655;46.056;13.616;2022-08-19T17:45:39;11.27;;;2.88;;
35550;SDS011;21655;46.056;13.616;2022-08-19T17:48:06;12.40;;;2.70;;
35550;SDS011;21655;46.056;13.616;2022-08-19T17:50:32;6.95;;;2.05;;
35550;SDS011;21655;46.056;13.616;2022-08-19T17:52:59;11.20;;;2.40;;
35550;SDS011;21655;46.056;13.616;2022-08-19T17:55:25;10.80;;;2.35;;
35550;SDS011;21655;46.056;13.616;2022-08-19T17:57:51;9.02;;;2.72;;
35550;SDS011;21655;46.056;13.616;2022-08-19T18:00:16;8.75;;;2.40;;
35550;SDS011;21655;46.056;13.616;2022-08-19T18:05:09;12.35;;;2.55;;
35550;SDS011;21655;46.056;13.616;2022-08-19T18:07:34;12.13;;;2.50;;
35550;SDS011;21655;46.056;13.616;2022-08-19T18:10:00;13.05;;;2.50;;
35550;SDS011;21655;46.056;13.616;2022-08-19T18:12:26;10.02;;;2.10;;
35550;SDS011;21655;46.056;13.616;2022-08-19T18:14:51;12.45;;;3.03;;
35550;SDS011;21655;46.056;13.616;2022-08-19T18:17:17;8.50;;;2.33;;
35550;SDS011;21655;46.056;13.616;2022-08-19T18:19:44;11.82;;;2.28;;
35550;SDS011;21655;46.056;13.616;2022-08-19T18:22:12;8.95;;;2.53;;
35550;SDS011;21655;46.056;13.616;2022-08-19T18:24:49;11.45;;;2.60;;
35550;SDS011;21655;46.056;13.616;2022-08-19T18:27:15;10.63;;;2.70;;
35550;SDS011;21655;46.056;13.616;2022-08-19T18:29:41;10.35;;;2.45;;
35550;SDS011;21655;46.056;13.616;2022-08-19T18:32:07;11.55;;;2.85;;
35550;SDS011;21655;46.056;13.616;2022-08-19T18:34:36;9.82;;;2.30;;
35550;SDS011;21655;46.056;13.616;2022-08-19T18:37:02;8.82;;;2.50;;
35550;SDS011;21655;46.056;13.616;2022-08-19T18:39:28;13.73;;;2.80;;
35550;SDS011;21655;46.056;13.616;2022-08-19T18:42:13;9.55;;;2.50;;
35550;SDS011;21655;46.056;13.616;2022-08-19T18:45:00;18.70;;;3.00;;
35550;SDS011;21655;46.056;13.616;2022-08-19T18:47:44;9.38;;;2.83;;
35550;SDS011;21655;46.056;13.616;2022-08-19T18:52:53;14.35;;;2.80;;
35550;SDS011;21655;46.056;13.616;2022-08-19T18:55:18;11.88;;;2.30;;
35550;SDS011;21655;46.056;13.616;2022-08-19T18:57:46;16.20;;;2.85;;
35550;SDS011;21655;46.056;13.616;2022-08-19T19:00:12;9.15;;;2.75;;
35550;SDS011;21655;46.056;13.616;2022-08-19T19:02:39;17.55;;;3.33;;
35550;SDS011;21655;46.056;13.616;2022-08-19T19:05:05;18.10;;;3.22;;
35550;SDS011;21655;46.056;13.616;2022-08-19T19:07:31;10.15;;;3.40;;
35550;SDS011;21655;46.056;13.616;2022-08-19T19:09:57;9.75;;;2.65;;
35550;SDS011;21655;46.056;13.616;2022-08-19T19:12:23;17.58;;;3.03;;
35550;SDS011;21655;46.056;13.616;2022-08-19T19:14:54;14.30;;;3.00;;
35550;SDS011;21655;46.056;13.616;2022-08-19T19:17:21;11.82;;;2.83;;
35550;SDS011;21655;46.056;13.616;2022-08-19T19:19:51;9.85;;;3.20;;
35550;SDS011;21655;46.056;13.616;2022-08-19T19:22:17;10.75;;;2.58;;
35550;SDS011;21655;46.056;13.616;2022-08-19T19:24:44;14.73;;;2.90;;
35550;SDS011;21655;46.056;13.616;2022-08-19T19:27:11;16.42;;;3.47;;
35550;SDS011;21655;46.056;13.616;2022-08-19T19:29:39;9.20;;;2.72;;
35550;SDS011;21655;46.056;13.616;2022-08-19T19:32:08;14.25;;;3.10;;
35550;SDS011;21655;46.056;13.616;2022-08-19T19:34:40;13.25;;;3.03;;
35550;SDS011;21655;46.056;13.616;2022-08-19T19:37:05;13.50;;;3.47;;
35550;SDS011;21655;46.056;13.616;2022-08-19T19:39:31;10.52;;;3.28;;
35550;SDS011;21655;46.056;13.616;2022-08-19T19:41:57;16.88;;;3.20;;
35550;SDS011;21655;46.056;13.616;2022-08-19T19:44:22;17.25;;;4.07;;
35550;SDS011;21655;46.056;13.616;2022-08-19T19:46:48;17.60;;;4.13;;
35550;SDS011;21655;46.056;13.616;2022-08-19T19:49:13;14.85;;;3.58;;
35550;SDS011;21655;46.056;13.616;2022-08-19T19:51:39;20.20;;;3.67;;
35550;SDS011;21655;46.056;13.616;2022-08-19T19:54:06;11.18;;;3.55;;
35550;SDS011;21655;46.056;13.616;2022-08-19T19:56:32;24.48;;;4.70;;
35550;SDS011;21655;46.056;13.616;2022-08-19T19:58:58;25.35;;;4.05;;
35550;SDS011;21655;46.056;13.616;2022-08-19T20:01:26;20.13;;;3.50;;
35550;SDS011;21655;46.056;13.616;2022-08-19T20:03:52;13.65;;;3.83;;
35550;SDS011;21655;46.056;13.616;2022-08-19T20:06:18;16.27;;;3.50;;
35550;SDS011;21655;46.056;13.616;2022-08-19T20:08:44;23.83;;;3.80;;
35550;SDS011;21655;46.056;13.616;2022-08-19T20:11:30;17.30;;;3.67;;
35550;SDS011;21655;46.056;13.616;2022-08-19T20:13:59;18.15;;;4.22;;
35550;SDS011;21655;46.056;13.616;2022-08-19T20:16:28;14.73;;;3.42;;
35550;SDS011;21655;46.056;13.616;2022-08-19T20:18:55;21.30;;;3.72;;
35550;SDS011;21655;46.056;13.616;2022-08-19T20:21:21;13.77;;;3.30;;
35550;SDS011;21655;46.056;13.616;2022-08-19T20:23:47;19.92;;;3.90;;
35550;SDS011;21655;46.056;13.616;2022-08-19T20:26:13;16.50;;;3.60;;
35550;SDS011;21655;46.056;13.616;2022-08-19T20:28:44;14.02;;;3.33;;
35550;SDS011;21655;46.056;13.616;2022-08-19T20:31:10;15.65;;;3.72;;
35550;SDS011;21655;46.056;13.616;2022-08-19T20:33:35;15.60;;;3.17;;
35550;SDS011;21655;46.056;13.616;2022-08-19T20:36:01;10.85;;;3.30;;
35550;SDS011;21655;46.056;13.616;2022-08-19T20:38:27;14.65;;;3.55;;
35550;SDS011;21655;46.056;13.616;2022-08-19T20:40:52;17.75;;;3.75;;
35550;SDS011;21655;46.056;13.616;2022-08-19T20:43:17;17.85;;;3.28;;
35550;SDS011;21655;46.056;13.616;2022-08-19T20:45:43;10.55;;;3.60;;
35550;SDS011;21655;46.056;13.616;2022-08-19T20:48:08;9.93;;;3.05;;
35550;SDS011;21655;46.056;13.616;2022-08-19T20:50:36;11.82;;;3.72;;
35550;SDS011;21655;46.056;13.616;2022-08-19T20:53:09;14.00;;;3.72;;
35550;SDS011;21655;46.056;13.616;2022-08-19T20:55:41;17.15;;;3.45;;
35550;SDS011;21655;46.056;13.616;2022-08-19T20:58:08;8.35;;;3.03;;
35550;SDS011;21655;46.056;13.616;2022-08-19T21:00:36;16.00;;;3.28;;
35550;SDS011;21655;46.056;13.616;2022-08-19T21:03:03;13.13;;;3.25;;
35550;SDS011;21655;46.056;13.616;2022-08-19T21:05:29;11.63;;;3.17;;
35550;SDS011;21655;46.056;13.616;2022-08-19T21:07:54;13.65;;;4.30;;
35550;SDS011;21655;46.056;13.616;2022-08-19T21:10:20;13.32;;;3.33;;
35550;SDS011;21655;46.056;13.616;2022-08-19T21:12:45;17.48;;;3.22;;
35550;SDS011;21655;46.056;13.616;2022-08-19T21:15:11;13.48;;;3.42;;
35550;SDS011;21655;46.056;13.616;2022-08-19T21:17:36;21.30;;;4.15;;
35550;SDS011;21655;46.056;13.616;2022-08-19T21:20:03;17.95;;;3.30;;
35550;SDS011;21655;46.056;13.616;2022-08-19T21:22:30;16.70;;;2.90;;
35550;SDS011;21655;46.056;13.616;2022-08-19T21:24:56;19.17;;;3.28;;
35550;SDS011;21655;46.056;13.616;2022-08-19T21:27:21;14.25;;;3.17;;
35550;SDS011;21655;46.056;13.616;2022-08-19T21:29:46;12.77;;;3.38;;
35550;SDS011;21655;46.056;13.616;2022-08-19T21:32:13;11.15;;;3.17;;
35550;SDS011;21655;46.056;13.616;2022-08-19T21:34:38;19.48;;;3.33;;
35550;SDS011;21655;46.056;13.616;2022-08-19T21:37:04;19.23;;;3.15;;
35550;SDS011;21655;46.056;13.616;2022-08-19T21:39:29;16.15;;;2.80;;
35550;SDS011;21655;46.056;13.616;2022-08-19T21:41:55;13.68;;;2.90;;
35550;SDS011;21655;46.056;13.616;2022-08-19T21:44:21;13.68;;;2.53;;
35550;SDS011;21655;46.056;13.616;2022-08-19T21:46:46;17.83;;;3.20;;
35550;SDS011;21655;46.056;13.616;2022-08-19T21:49:12;14.60;;;3.22;;
35550;SDS011;21655;46.056;13.616;2022-08-19T21:51:38;15.98;;;3.03;;
35550;SDS011;21655;46.056;13.616;2022-08-19T21:54:04;16.70;;;2.92;;
35550;SDS011;21655;46.056;13.616;2022-08-19T21:56:29;9.35;;;2.83;;
35550;SDS011;21655;46.056;13.616;2022-08-19T21:58:55;13.93;;;3.08;;
35550;SDS011;21655;46.056;13.616;2022-08-19T22:01:20;9.05;;;2.53;;
35550;SDS011;21655;46.056;13.616;2022-08-19T22:03:46;14.30;;;2.97;;
35550;SDS011;21655;46.056;13.616;2022-08-19T22:06:12;16.70;;;3.25;;
35550;SDS011;21655;46.056;13.616;2022-08-19T22:08:38;16.73;;;2.80;;
35550;SDS011;21655;46.056;13.616;2022-08-19T22:11:05;9.07;;;2.55;;
35550;SDS011;21655;46.056;13.616;2022-08-19T22:13:32;7.97;;;2.60;;
35550;SDS011;21655;46.056;13.616;2022-08-19T22:16:03;11.57;;;2.47;;
35550;SDS011;21655;46.056;13.616;2022-08-19T22:18:29;8.20;;;2.28;;
35550;SDS011;21655;46.056;13.616;2022-08-19T22:20:55;9.90;;;2.42;;
35550;SDS011;21655;46.056;13.616;2022-08-19T22:23:21;15.05;;;2.42;;
35550;SDS011;21655;46.056;13.616;2022-08-19T22:25:46;16.35;;;3.15;;
35550;SDS011;21655;46.056;13.616;2022-08-19T22:28:12;7.60;;;1.98;;
35550;SDS011;21655;46.056;13.616;2022-08-19T22:30:40;10.23;;;2.38;;
35550;SDS011;21655;46.056;13.616;2022-08-19T22:33:09;9.27;;;2.58;;
35550;SDS011;21655;46.056;13.616;2022-08-19T22:35:37;10.23;;;2.97;;
35550;SDS011;21655;46.056;13.616;2022-08-19T22:38:05;13.45;;;2.63;;
35550;SDS011;21655;46.056;13.616;2022-08-19T22:40:32;10.98;;;2.75;;
35550;SDS011;21655;46.056;13.616;2022-08-19T22:43:11;12.82;;;2.97;;
35550;SDS011;21655;46.056;13.616;2022-08-19T22:45:39;8.50;;;2.40;;
35550;SDS011;21655;46.056;13.616;2022-08-19T22:48:06;8.98;;;2.70;;
35550;SDS011;21655;46.056;13.616;2022-08-19T22:50:34;7.63;;;2.05;;
35550;SDS011;21655;46.056;13.616;2022-08-19T22:53:01;10.43;;;2.50;;
35550;SDS011;21655;46.056;13.616;2022-08-19T22:55:31;11.45;;;2.75;;
35550;SDS011;21655;46.056;13.616;2022-08-19T22:57:58;10.35;;;2.65;;
35550;SDS011;21655;46.056;13.616;2022-08-19T23:00:24;11.50;;;2.83;;
35550;SDS011;21655;46.056;13.616;2022-08-19T23:02:51;10.38;;;3.17;;
35550;SDS011;21655;46.056;13.616;2022-08-19T23:05:19;6.28;;;2.20;;
35550;SDS011;21655;46.056;13.616;2022-08-19T23:07:46;10.45;;;2.67;;
35550;SDS011;21655;46.056;13.616;2022-08-19T23:10:11;11.45;;;2.60;;
35550;SDS011;21655;46.056;13.616;2022-08-19T23:12:42;12.00;;;2.88;;
35550;SDS011;21655;46.056;13.616;2022-08-19T23:15:17;10.82;;;2.70;;
35550;SDS011;21655;46.056;13.616;2022-08-19T23:17:50;8.15;;;2.60;;
35550;SDS011;21655;46.056;13.616;2022-08-19T23:20:16;11.13;;;2.78;;
35550;SDS011;21655;46.056;13.616;2022-08-19T23:22:45;7.55;;;2.40;;
35550;SDS011;21655;46.056;13.616;2022-08-19T23:25:18;11.10;;;2.97;;
35550;SDS011;21655;46.056;13.616;2022-08-19T23:27:45;9.52;;;2.60;;
35550;SDS011;21655;46.056;13.616;2022-08-19T23:30:30;9.35;;;2.50;;
35550;SDS011;21655;46.056;13.616;2022-08-19T23:33:13;16.65;;;2.80;;
35550;SDS011;21655;46.056;13.616;2022-08-19T23:35:39;9.85;;;2.85;;
35550;SDS011;21655;46.056;13.616;2022-08-19T23:38:06;12.27;;;2.95;;
35550;SDS011;21655;46.056;13.616;2022-08-19T23:40:33;14.38;;;2.83;;
35550;SDS011;21655;46.056;13.616;2022-08-19T23:43:00;11.13;;;3.03;;
35550;SDS011;21655;46.056;13.616;2022-08-19T23:45:27;13.68;;;2.70;;
35550;SDS011;21655;46.056;13.616;2022-08-19T23:47:54;15.13;;;2.95;;
35550;SDS011;21655;46.056;13.616;2022-08-19T23:50:21;13.95;;;2.88;;
35550;SDS011;21655;46.056;13.616;2022-08-19T23:52:57;12.73;;;2.85;;
35550;SDS011;21655;46.056;13.616;2022-08-19T23:55:26;8.45;;;2.50;;
35550;SDS011;21655;46.056;13.616;2022-08-19T23:57:54;13.00;;;2.38;;
